Dwight, North Dakota
Current Conditions -  °F | °C
As of 7:55 PM on Friday 21 Nov 2014 (Local Time) from KBWP Reporting Station
Clear Clear  
Wind Chill: 23°   Ceiling: Unl
Heat Index: 30°   Visibility: 10mi
Dew Point: 27°   Wind: 8mph
Humidity: 86%   Direction: 160°SSE
Pressure: 29.76"   Gusts: NA
Location:  46.3099°N, 96.7867°W
Report Text: KBWP 220155Z AUTO 16007KT 10SM CLR M01/M03 A2976 RMK AO1
Loading
Personal Weather Stations






























Interactive Weather Map New forecast layout! Learn more

10-Day Weather Forecast

Advertisements
Track Severe Weather on mobile